Terminal Aerodrome Forecast
Issued by NWS

Home | Current Version | Previous Version | Text Only | Print | Product List | Glossary On
Versions: 1 2 3 4 5 6 7 8 9 10 11 12 13 14 15 16 17 18 19 20 21 22 23 24 25 26
000
FTUS42 KILM 032345 CCA
TAFCRE
TAF COR
KCRE 032345Z 0400/0424 25005KT P6SM SCT090 OVC200
     FM040300 24002KT 5SM BR SCT120 BKN250
      TEMPO 0408/0412 00000KT 1SM BR SCT250
     FM041300 32004KT P6SM SCT250
     FM041700 16008KT P6SM VCSH SCT040 BKN250=

USA.gov is the U.S. government's official web portal to all federal, state and local government web resources and services.